sensor_id;sensor_type;location;lat;lon;timestamp;P1;durP1;ratioP1;P2;durP2;ratioP2
50161;SDS011;36061;48.116;11.612;2022-11-04T00:01:57;4.70;;;2.90;;
50161;SDS011;36061;48.116;11.612;2022-11-04T00:04:25;5.80;;;3.10;;
50161;SDS011;36061;48.116;11.612;2022-11-04T00:06:52;7.47;;;2.93;;
50161;SDS011;36061;48.116;11.612;2022-11-04T00:09:20;5.47;;;3.10;;
50161;SDS011;36061;48.116;11.612;2022-11-04T00:11:48;5.83;;;2.87;;
50161;SDS011;36061;48.116;11.612;2022-11-04T00:14:33;4.97;;;2.57;;
50161;SDS011;36061;48.116;11.612;2022-11-04T00:17:00;2.83;;;2.33;;
50161;SDS011;36061;48.116;11.612;2022-11-04T00:19:49;7.27;;;2.27;;
50161;SDS011;36061;48.116;11.612;2022-11-04T00:22:35;5.17;;;2.60;;
50161;SDS011;36061;48.116;11.612;2022-11-04T00:25:20;4.10;;;2.40;;
50161;SDS011;36061;48.116;11.612;2022-11-04T00:28:10;4.63;;;2.87;;
50161;SDS011;36061;48.116;11.612;2022-11-04T00:30:59;3.30;;;2.20;;
50161;SDS011;36061;48.116;11.612;2022-11-04T00:33:47;5.50;;;2.70;;
50161;SDS011;36061;48.116;11.612;2022-11-04T00:36:13;5.07;;;2.30;;
50161;SDS011;36061;48.116;11.612;2022-11-04T00:38:39;5.50;;;2.53;;
50161;SDS011;36061;48.116;11.612;2022-11-04T00:41:05;6.43;;;2.57;;
50161;SDS011;36061;48.116;11.612;2022-11-04T00:43:56;3.43;;;2.30;;
50161;SDS011;36061;48.116;11.612;2022-11-04T00:46:24;3.13;;;2.20;;
50161;SDS011;36061;48.116;11.612;2022-11-04T00:48:52;3.33;;;1.93;;
50161;SDS011;36061;48.116;11.612;2022-11-04T00:51:18;2.83;;;2.10;;
50161;SDS011;36061;48.116;11.612;2022-11-04T00:53:45;2.07;;;1.77;;
50161;SDS011;36061;48.116;11.612;2022-11-04T00:56:11;2.17;;;1.40;;
50161;SDS011;36061;48.116;11.612;2022-11-04T00:58:37;2.53;;;2.03;;
50161;SDS011;36061;48.116;11.612;2022-11-04T01:01:09;2.37;;;1.80;;
50161;SDS011;36061;48.116;11.612;2022-11-04T01:03:36;2.00;;;1.70;;
50161;SDS011;36061;48.116;11.612;2022-11-04T01:06:03;2.97;;;1.60;;
50161;SDS011;36061;48.116;11.612;2022-11-04T01:08:29;2.10;;;1.20;;
50161;SDS011;36061;48.116;11.612;2022-11-04T01:10:55;2.40;;;1.63;;
50161;SDS011;36061;48.116;11.612;2022-11-04T01:13:21;1.80;;;1.33;;
50161;SDS011;36061;48.116;11.612;2022-11-04T01:15:47;1.50;;;1.40;;
50161;SDS011;36061;48.116;11.612;2022-11-04T01:18:12;2.83;;;1.07;;
50161;SDS011;36061;48.116;11.612;2022-11-04T01:20:38;2.67;;;1.60;;
50161;SDS011;36061;48.116;11.612;2022-11-04T01:23:04;3.53;;;1.20;;
50161;SDS011;36061;48.116;11.612;2022-11-04T01:25:30;4.47;;;1.43;;
50161;SDS011;36061;48.116;11.612;2022-11-04T01:27:56;2.60;;;1.10;;
50161;SDS011;36061;48.116;11.612;2022-11-04T01:30:22;2.20;;;1.33;;
50161;SDS011;36061;48.116;11.612;2022-11-04T01:32:47;2.27;;;1.20;;
50161;SDS011;36061;48.116;11.612;2022-11-04T01:35:13;2.67;;;1.20;;
50161;SDS011;36061;48.116;11.612;2022-11-04T01:37:39;1.60;;;1.03;;
50161;SDS011;36061;48.116;11.612;2022-11-04T01:40:05;1.73;;;1.13;;
50161;SDS011;36061;48.116;11.612;2022-11-04T01:42:31;1.87;;;1.33;;
50161;SDS011;36061;48.116;11.612;2022-11-04T01:44:57;1.90;;;1.33;;
50161;SDS011;36061;48.116;11.612;2022-11-04T01:50:08;1.27;;;1.00;;
50161;SDS011;36061;48.116;11.612;2022-11-04T01:53:03;1.40;;;1.00;;
50161;SDS011;36061;48.116;11.612;2022-11-04T01:55:34;0.93;;;0.80;;
50161;SDS011;36061;48.116;11.612;2022-11-04T01:58:05;1.60;;;1.23;;
50161;SDS011;36061;48.116;11.612;2022-11-04T02:00:36;2.53;;;0.97;;
50161;SDS011;36061;48.116;11.612;2022-11-04T02:03:07;1.20;;;0.80;;
50161;SDS011;36061;48.116;11.612;2022-11-04T02:05:36;1.40;;;0.77;;
50161;SDS011;36061;48.116;11.612;2022-11-04T02:08:03;0.80;;;0.80;;
50161;SDS011;36061;48.116;11.612;2022-11-04T02:10:30;1.80;;;0.90;;
50161;SDS011;36061;48.116;11.612;2022-11-04T02:12:57;0.97;;;0.83;;
50161;SDS011;36061;48.116;11.612;2022-11-04T02:29:33;1.20;;;0.90;;
50161;SDS011;36061;48.116;11.612;2022-11-04T02:37:34;1.47;;;0.90;;
50161;SDS011;36061;48.116;11.612;2022-11-04T02:40:17;1.50;;;0.80;;
50161;SDS011;36061;48.116;11.612;2022-11-04T02:45:52;0.70;;;0.70;;
50161;SDS011;36061;48.116;11.612;2022-11-04T02:48:24;2.43;;;0.80;;
50161;SDS011;36061;48.116;11.612;2022-11-04T02:50:53;1.37;;;0.70;;
50161;SDS011;36061;48.116;11.612;2022-11-04T02:56:08;1.20;;;0.83;;
50161;SDS011;36061;48.116;11.612;2022-11-04T02:58:39;1.13;;;0.70;;
50161;SDS011;36061;48.116;11.612;2022-11-04T03:01:10;0.90;;;0.53;;
50161;SDS011;36061;48.116;11.612;2022-11-04T03:03:42;0.67;;;0.67;;
50161;SDS011;36061;48.116;11.612;2022-11-04T03:06:12;1.47;;;0.93;;
50161;SDS011;36061;48.116;11.612;2022-11-04T03:08:42;1.33;;;0.70;;
50161;SDS011;36061;48.116;11.612;2022-11-04T03:11:22;0.70;;;0.70;;
50161;SDS011;36061;48.116;11.612;2022-11-04T03:14:07;0.80;;;0.63;;
50161;SDS011;36061;48.116;11.612;2022-11-04T03:16:41;0.73;;;0.60;;
50161;SDS011;36061;48.116;11.612;2022-11-04T03:22:08;1.67;;;0.60;;
50161;SDS011;36061;48.116;11.612;2022-11-04T03:24:36;0.80;;;0.50;;
50161;SDS011;36061;48.116;11.612;2022-11-04T03:29:38;1.10;;;0.70;;
50161;SDS011;36061;48.116;11.612;2022-11-04T03:32:37;1.20;;;0.50;;
50161;SDS011;36061;48.116;11.612;2022-11-04T03:35:15;1.03;;;0.70;;
50161;SDS011;36061;48.116;11.612;2022-11-04T03:37:42;1.77;;;0.63;;
50161;SDS011;36061;48.116;11.612;2022-11-04T03:40:08;0.47;;;0.40;;
50161;SDS011;36061;48.116;11.612;2022-11-04T03:42:37;1.23;;;0.53;;
50161;SDS011;36061;48.116;11.612;2022-11-04T03:45:07;0.40;;;0.40;;
50161;SDS011;36061;48.116;11.612;2022-11-04T03:47:35;0.80;;;0.73;;
50161;SDS011;36061;48.116;11.612;2022-11-04T03:50:04;0.73;;;0.60;;
50161;SDS011;36061;48.116;11.612;2022-11-04T03:52:35;0.50;;;0.50;;
50161;SDS011;36061;48.116;11.612;2022-11-04T03:55:01;0.63;;;0.60;;
50161;SDS011;36061;48.116;11.612;2022-11-04T04:00:15;1.07;;;0.83;;
50161;SDS011;36061;48.116;11.612;2022-11-04T04:08:05;0.60;;;0.60;;
50161;SDS011;36061;48.116;11.612;2022-11-04T04:10:42;0.83;;;0.60;;
50161;SDS011;36061;48.116;11.612;2022-11-04T04:13:24;2.00;;;0.53;;
50161;SDS011;36061;48.116;11.612;2022-11-04T04:16:02;0.53;;;0.50;;
50161;SDS011;36061;48.116;11.612;2022-11-04T04:21:08;0.77;;;0.50;;
50161;SDS011;36061;48.116;11.612;2022-11-04T04:23:39;0.57;;;0.57;;
50161;SDS011;36061;48.116;11.612;2022-11-04T04:26:26;0.50;;;0.50;;
50161;SDS011;36061;48.116;11.612;2022-11-04T04:29:12;0.70;;;0.67;;
50161;SDS011;36061;48.116;11.612;2022-11-04T04:31:38;0.77;;;0.60;;
50161;SDS011;36061;48.116;11.612;2022-11-04T04:34:23;0.57;;;0.57;;
50161;SDS011;36061;48.116;11.612;2022-11-04T04:39:24;0.63;;;0.60;;
50161;SDS011;36061;48.116;11.612;2022-11-04T04:42:13;0.67;;;0.67;;
50161;SDS011;36061;48.116;11.612;2022-11-04T04:44:58;0.50;;;0.50;;
50161;SDS011;36061;48.116;11.612;2022-11-04T04:47:29;0.60;;;0.60;;
50161;SDS011;36061;48.116;11.612;2022-11-04T04:50:05;0.50;;;0.40;;
50161;SDS011;36061;48.116;11.612;2022-11-04T04:52:41;0.80;;;0.70;;
50161;SDS011;36061;48.116;11.612;2022-11-04T04:55:09;0.60;;;0.60;;
50161;SDS011;36061;48.116;11.612;2022-11-04T04:57:36;0.70;;;0.67;;
50161;SDS011;36061;48.116;11.612;2022-11-04T05:00:03;0.93;;;0.60;;
50161;SDS011;36061;48.116;11.612;2022-11-04T05:02:30;0.50;;;0.50;;
50161;SDS011;36061;48.116;11.612;2022-11-04T05:04:56;0.60;;;0.60;;
50161;SDS011;36061;48.116;11.612;2022-11-04T05:07:23;0.50;;;0.50;;
50161;SDS011;36061;48.116;11.612;2022-11-04T05:09:50;1.70;;;0.67;;
50161;SDS011;36061;48.116;11.612;2022-11-04T05:12:16;1.10;;;0.60;;
50161;SDS011;36061;48.116;11.612;2022-11-04T05:14:42;0.70;;;0.50;;
50161;SDS011;36061;48.116;11.612;2022-11-04T05:17:08;1.37;;;0.73;;
50161;SDS011;36061;48.116;11.612;2022-11-04T05:19:34;0.60;;;0.50;;
50161;SDS011;36061;48.116;11.612;2022-11-04T05:22:00;0.57;;;0.53;;
50161;SDS011;36061;48.116;11.612;2022-11-04T05:24:25;0.43;;;0.43;;
50161;SDS011;36061;48.116;11.612;2022-11-04T05:26:51;0.97;;;0.70;;
50161;SDS011;36061;48.116;11.612;2022-11-04T05:29:17;1.07;;;0.60;;
50161;SDS011;36061;48.116;11.612;2022-11-04T05:31:43;1.80;;;0.70;;
50161;SDS011;36061;48.116;11.612;2022-11-04T05:34:09;1.27;;;0.90;;
50161;SDS011;36061;48.116;11.612;2022-11-04T05:36:36;0.77;;;0.77;;
50161;SDS011;36061;48.116;11.612;2022-11-04T05:39:02;0.53;;;0.50;;
50161;SDS011;36061;48.116;11.612;2022-11-04T05:41:28;1.53;;;0.80;;
50161;SDS011;36061;48.116;11.612;2022-11-04T05:43:55;0.80;;;0.70;;
50161;SDS011;36061;48.116;11.612;2022-11-04T05:46:22;1.60;;;0.70;;
50161;SDS011;36061;48.116;11.612;2022-11-04T05:48:48;1.83;;;0.90;;
50161;SDS011;36061;48.116;11.612;2022-11-04T05:51:15;0.87;;;0.80;;
50161;SDS011;36061;48.116;11.612;2022-11-04T05:53:43;0.50;;;0.50;;
50161;SDS011;36061;48.116;11.612;2022-11-04T05:56:09;0.50;;;0.50;;
50161;SDS011;36061;48.116;11.612;2022-11-04T05:58:35;1.20;;;0.73;;
50161;SDS011;36061;48.116;11.612;2022-11-04T06:03:59;0.67;;;0.50;;
50161;SDS011;36061;48.116;11.612;2022-11-04T06:06:26;2.27;;;0.80;;
50161;SDS011;36061;48.116;11.612;2022-11-04T06:08:54;0.40;;;0.40;;
50161;SDS011;36061;48.116;11.612;2022-11-04T06:11:21;0.97;;;0.50;;
50161;SDS011;36061;48.116;11.612;2022-11-04T06:13:47;0.77;;;0.70;;
50161;SDS011;36061;48.116;11.612;2022-11-04T06:16:13;2.60;;;0.50;;
50161;SDS011;36061;48.116;11.612;2022-11-04T06:18:39;1.10;;;0.80;;
50161;SDS011;36061;48.116;11.612;2022-11-04T06:21:09;1.57;;;0.60;;
50161;SDS011;36061;48.116;11.612;2022-11-04T06:23:41;0.40;;;0.40;;
50161;SDS011;36061;48.116;11.612;2022-11-04T06:26:08;0.80;;;0.70;;
50161;SDS011;36061;48.116;11.612;2022-11-04T06:28:35;1.17;;;1.00;;
50161;SDS011;36061;48.116;11.612;2022-11-04T06:31:02;0.87;;;0.67;;
50161;SDS011;36061;48.116;11.612;2022-11-04T06:33:29;1.43;;;0.90;;
50161;SDS011;36061;48.116;11.612;2022-11-04T06:35:56;0.80;;;0.60;;
50161;SDS011;36061;48.116;11.612;2022-11-04T06:38:23;0.93;;;0.70;;
50161;SDS011;36061;48.116;11.612;2022-11-04T06:40:49;1.47;;;0.70;;
50161;SDS011;36061;48.116;11.612;2022-11-04T06:43:15;1.47;;;0.87;;
50161;SDS011;36061;48.116;11.612;2022-11-04T06:45:40;2.17;;;0.77;;
50161;SDS011;36061;48.116;11.612;2022-11-04T06:48:06;2.37;;;0.70;;
50161;SDS011;36061;48.116;11.612;2022-11-04T06:50:32;1.30;;;0.80;;
50161;SDS011;36061;48.116;11.612;2022-11-04T06:52:58;1.20;;;0.97;;
50161;SDS011;36061;48.116;11.612;2022-11-04T06:55:24;0.90;;;0.87;;
50161;SDS011;36061;48.116;11.612;2022-11-04T06:57:50;1.83;;;0.90;;
50161;SDS011;36061;48.116;11.612;2022-11-04T07:00:16;0.70;;;0.60;;
50161;SDS011;36061;48.116;11.612;2022-11-04T07:02:42;2.33;;;0.80;;
50161;SDS011;36061;48.116;11.612;2022-11-04T07:05:08;1.23;;;0.77;;
50161;SDS011;36061;48.116;11.612;2022-11-04T07:07:36;1.27;;;0.87;;
50161;SDS011;36061;48.116;11.612;2022-11-04T07:10:02;1.57;;;1.00;;
50161;SDS011;36061;48.116;11.612;2022-11-04T07:12:28;1.47;;;0.73;;
50161;SDS011;36061;48.116;11.612;2022-11-04T07:14:54;1.10;;;0.80;;
50161;SDS011;36061;48.116;11.612;2022-11-04T07:17:20;1.67;;;1.00;;
50161;SDS011;36061;48.116;11.612;2022-11-04T07:19:46;1.00;;;0.50;;
50161;SDS011;36061;48.116;11.612;2022-11-04T07:22:12;0.73;;;0.73;;
50161;SDS011;36061;48.116;11.612;2022-11-04T07:24:37;0.93;;;0.80;;
50161;SDS011;36061;48.116;11.612;2022-11-04T07:27:03;2.53;;;0.80;;
50161;SDS011;36061;48.116;11.612;2022-11-04T07:29:30;1.40;;;1.00;;
50161;SDS011;36061;48.116;11.612;2022-11-04T07:31:56;4.73;;;2.80;;
50161;SDS011;36061;48.116;11.612;2022-11-04T07:34:23;5.03;;;2.87;;
50161;SDS011;36061;48.116;11.612;2022-11-04T07:36:49;3.63;;;2.00;;
50161;SDS011;36061;48.116;11.612;2022-11-04T07:39:14;3.10;;;1.40;;
50161;SDS011;36061;48.116;11.612;2022-11-04T07:41:40;5.20;;;2.50;;
50161;SDS011;36061;48.116;11.612;2022-11-04T07:44:08;2.43;;;1.40;;
50161;SDS011;36061;48.116;11.612;2022-11-04T07:46:35;4.27;;;1.97;;
50161;SDS011;36061;48.116;11.612;2022-11-04T07:49:01;3.67;;;1.30;;
50161;SDS011;36061;48.116;11.612;2022-11-04T07:51:27;2.23;;;1.10;;
50161;SDS011;36061;48.116;11.612;2022-11-04T07:53:56;5.97;;;2.07;;
50161;SDS011;36061;48.116;11.612;2022-11-04T07:56:22;1.87;;;1.03;;
50161;SDS011;36061;48.116;11.612;2022-11-04T07:58:48;2.93;;;1.00;;
50161;SDS011;36061;48.116;11.612;2022-11-04T08:01:16;3.93;;;1.93;;
50161;SDS011;36061;48.116;11.612;2022-11-04T08:03:47;3.90;;;1.37;;
50161;SDS011;36061;48.116;11.612;2022-11-04T08:06:15;2.30;;;0.83;;
50161;SDS011;36061;48.116;11.612;2022-11-04T08:08:42;6.10;;;1.70;;
50161;SDS011;36061;48.116;11.612;2022-11-04T08:11:12;2.77;;;1.13;;
50161;SDS011;36061;48.116;11.612;2022-11-04T08:13:40;3.00;;;1.83;;
50161;SDS011;36061;48.116;11.612;2022-11-04T08:16:08;3.50;;;1.50;;
50161;SDS011;36061;48.116;11.612;2022-11-04T08:18:37;2.83;;;1.43;;
50161;SDS011;36061;48.116;11.612;2022-11-04T08:21:03;10.80;;;2.43;;
50161;SDS011;36061;48.116;11.612;2022-11-04T08:23:29;2.97;;;1.10;;
50161;SDS011;36061;48.116;11.612;2022-11-04T08:25:56;2.20;;;1.23;;
50161;SDS011;36061;48.116;11.612;2022-11-04T08:28:23;3.67;;;1.70;;
50161;SDS011;36061;48.116;11.612;2022-11-04T08:33:24;3.87;;;1.97;;
50161;SDS011;36061;48.116;11.612;2022-11-04T08:35:51;5.90;;;1.90;;
50161;SDS011;36061;48.116;11.612;2022-11-04T08:38:18;2.23;;;1.20;;
50161;SDS011;36061;48.116;11.612;2022-11-04T08:40:44;3.67;;;1.77;;
50161;SDS011;36061;48.116;11.612;2022-11-04T08:43:10;2.73;;;1.50;;
50161;SDS011;36061;48.116;11.612;2022-11-04T08:45:40;4.03;;;1.70;;
50161;SDS011;36061;48.116;11.612;2022-11-04T08:48:08;1.97;;;1.27;;
50161;SDS011;36061;48.116;11.612;2022-11-04T08:50:33;2.87;;;1.13;;
50161;SDS011;36061;48.116;11.612;2022-11-04T08:53:00;4.10;;;1.13;;
50161;SDS011;36061;48.116;11.612;2022-11-04T08:55:30;2.70;;;1.27;;
50161;SDS011;36061;48.116;11.612;2022-11-04T08:57:56;1.50;;;1.00;;
50161;SDS011;36061;48.116;11.612;2022-11-04T09:00:22;2.87;;;1.40;;
50161;SDS011;36061;48.116;11.612;2022-11-04T09:02:49;4.87;;;1.47;;
50161;SDS011;36061;48.116;11.612;2022-11-04T09:05:15;2.23;;;1.30;;
50161;SDS011;36061;48.116;11.612;2022-11-04T09:07:41;5.17;;;2.50;;
50161;SDS011;36061;48.116;11.612;2022-11-04T09:10:10;6.70;;;3.00;;
50161;SDS011;36061;48.116;11.612;2022-11-04T09:12:36;3.53;;;1.80;;
50161;SDS011;36061;48.116;11.612;2022-11-04T09:15:02;3.83;;;2.07;;
50161;SDS011;36061;48.116;11.612;2022-11-04T09:17:30;4.83;;;2.53;;
50161;SDS011;36061;48.116;11.612;2022-11-04T09:19:56;2.50;;;1.53;;
50161;SDS011;36061;48.116;11.612;2022-11-04T09:22:21;3.40;;;1.90;;
50161;SDS011;36061;48.116;11.612;2022-11-04T09:24:47;1.63;;;1.10;;
50161;SDS011;36061;48.116;11.612;2022-11-04T09:27:13;3.30;;;1.60;;
50161;SDS011;36061;48.116;11.612;2022-11-04T09:29:39;2.27;;;1.50;;
50161;SDS011;36061;48.116;11.612;2022-11-04T09:32:05;5.33;;;2.10;;
50161;SDS011;36061;48.116;11.612;2022-11-04T09:34:31;2.10;;;1.63;;
50161;SDS011;36061;48.116;11.612;2022-11-04T09:36:57;1.33;;;1.03;;
50161;SDS011;36061;48.116;11.612;2022-11-04T09:39:23;2.77;;;1.43;;
50161;SDS011;36061;48.116;11.612;2022-11-04T09:41:58;2.17;;;0.83;;
50161;SDS011;36061;48.116;11.612;2022-11-04T09:47:22;1.53;;;1.00;;
50161;SDS011;36061;48.116;11.612;2022-11-04T09:49:53;2.33;;;1.40;;
50161;SDS011;36061;48.116;11.612;2022-11-04T09:52:27;2.03;;;1.60;;
50161;SDS011;36061;48.116;11.612;2022-11-04T09:55:06;3.03;;;1.53;;
50161;SDS011;36061;48.116;11.612;2022-11-04T09:57:41;3.83;;;1.73;;
50161;SDS011;36061;48.116;11.612;2022-11-04T10:00:13;2.77;;;1.63;;
50161;SDS011;36061;48.116;11.612;2022-11-04T10:11:25;2.13;;;1.20;;
50161;SDS011;36061;48.116;11.612;2022-11-04T10:22:30;2.57;;;0.80;;
50161;SDS011;36061;48.116;11.612;2022-11-04T10:25:06;1.77;;;1.00;;
50161;SDS011;36061;48.116;11.612;2022-11-04T10:27:39;1.03;;;0.90;;
50161;SDS011;36061;48.116;11.612;2022-11-04T10:35:41;4.97;;;1.57;;
50161;SDS011;36061;48.116;11.612;2022-11-04T10:38:23;2.33;;;1.30;;
50161;SDS011;36061;48.116;11.612;2022-11-04T10:40:53;4.33;;;1.90;;
50161;SDS011;36061;48.116;11.612;2022-11-04T10:43:40;2.80;;;1.67;;
50161;SDS011;36061;48.116;11.612;2022-11-04T10:51:40;2.20;;;1.00;;
50161;SDS011;36061;48.116;11.612;2022-11-04T10:54:07;2.27;;;1.10;;
50161;SDS011;36061;48.116;11.612;2022-11-04T10:56:35;3.60;;;1.50;;
50161;SDS011;36061;48.116;11.612;2022-11-04T10:59:14;1.60;;;1.23;;
50161;SDS011;36061;48.116;11.612;2022-11-04T11:01:53;2.67;;;1.07;;
50161;SDS011;36061;48.116;11.612;2022-11-04T11:04:28;1.80;;;1.00;;
50161;SDS011;36061;48.116;11.612;2022-11-04T11:06:58;1.60;;;1.27;;
50161;SDS011;36061;48.116;11.612;2022-11-04T11:09:31;1.83;;;0.80;;
50161;SDS011;36061;48.116;11.612;2022-11-04T11:14:38;1.20;;;1.07;;
50161;SDS011;36061;48.116;11.612;2022-11-04T11:19:56;1.77;;;1.00;;
50161;SDS011;36061;48.116;11.612;2022-11-04T11:22:27;2.90;;;0.90;;
50161;SDS011;36061;48.116;11.612;2022-11-04T11:25:40;1.83;;;0.87;;
50161;SDS011;36061;48.116;11.612;2022-11-04T11:28:00;1.97;;;1.00;;
50161;SDS011;36061;48.116;11.612;2022-11-04T11:35:45;1.43;;;1.00;;
50161;SDS011;36061;48.116;11.612;2022-11-04T11:41:09;2.03;;;1.20;;
50161;SDS011;36061;48.116;11.612;2022-11-04T11:43:48;2.53;;;1.37;;
50161;SDS011;36061;48.116;11.612;2022-11-04T11:46:28;1.60;;;0.90;;
50161;SDS011;36061;48.116;11.612;2022-11-04T11:48:57;1.90;;;1.10;;
50161;SDS011;36061;48.116;11.612;2022-11-04T11:57:01;1.50;;;1.00;;
50161;SDS011;36061;48.116;11.612;2022-11-04T11:59:39;4.93;;;2.40;;
50161;SDS011;36061;48.116;11.612;2022-11-04T12:04:54;6.87;;;2.83;;
50161;SDS011;36061;48.116;11.612;2022-11-04T12:10:26;2.20;;;1.17;;
50161;SDS011;36061;48.116;11.612;2022-11-04T12:13:00;0.90;;;0.80;;
50161;SDS011;36061;48.116;11.612;2022-11-04T12:21:16;1.37;;;1.13;;
50161;SDS011;36061;48.116;11.612;2022-11-04T12:23:53;1.03;;;0.70;;
50161;SDS011;36061;48.116;11.612;2022-11-04T12:26:38;1.57;;;0.80;;
50161;SDS011;36061;48.116;11.612;2022-11-04T12:29:43;1.00;;;0.90;;
50161;SDS011;36061;48.116;11.612;2022-11-04T12:40:24;2.50;;;0.90;;
50161;SDS011;36061;48.116;11.612;2022-11-04T12:48:48;1.47;;;1.17;;
50161;SDS011;36061;48.116;11.612;2022-11-04T12:51:42;2.93;;;1.50;;
50161;SDS011;36061;48.116;11.612;2022-11-04T13:00:08;2.93;;;2.20;;
50161;SDS011;36061;48.116;11.612;2022-11-04T13:07:32;3.83;;;2.40;;
50161;SDS011;36061;48.116;11.612;2022-11-04T13:10:05;2.73;;;1.77;;
50161;SDS011;36061;48.116;11.612;2022-11-04T13:12:42;3.10;;;1.30;;
50161;SDS011;36061;48.116;11.612;2022-11-04T13:17:41;5.43;;;2.23;;
50161;SDS011;36061;48.116;11.612;2022-11-04T13:22:52;1.77;;;1.00;;
50161;SDS011;36061;48.116;11.612;2022-11-04T13:25:28;3.50;;;2.07;;
50161;SDS011;36061;48.116;11.612;2022-11-04T13:27:54;4.90;;;1.90;;
50161;SDS011;36061;48.116;11.612;2022-11-04T13:30:22;7.03;;;3.30;;
50161;SDS011;36061;48.116;11.612;2022-11-04T13:38:33;1.87;;;1.20;;
50161;SDS011;36061;48.116;11.612;2022-11-04T13:43:55;1.37;;;1.10;;
50161;SDS011;36061;48.116;11.612;2022-11-04T13:51:38;2.27;;;1.00;;
50161;SDS011;36061;48.116;11.612;2022-11-04T13:54:12;4.97;;;2.00;;
50161;SDS011;36061;48.116;11.612;2022-11-04T13:57:01;1.33;;;1.10;;
50161;SDS011;36061;48.116;11.612;2022-11-04T14:02:50;1.40;;;1.20;;
50161;SDS011;36061;48.116;11.612;2022-11-04T14:10:45;2.57;;;1.60;;
50161;SDS011;36061;48.116;11.612;2022-11-04T14:18:38;5.60;;;3.50;;
50161;SDS011;36061;48.116;11.612;2022-11-04T14:21:21;6.33;;;3.37;;
50161;SDS011;36061;48.116;11.612;2022-11-04T14:23:52;7.47;;;3.40;;
50161;SDS011;36061;48.116;11.612;2022-11-04T14:26:27;4.07;;;2.63;;
50161;SDS011;36061;48.116;11.612;2022-11-04T14:29:26;5.30;;;2.53;;
50161;SDS011;36061;48.116;11.612;2022-11-04T14:31:52;3.93;;;2.70;;
50161;SDS011;36061;48.116;11.612;2022-11-04T14:34:33;3.17;;;1.53;;
50161;SDS011;36061;48.116;11.612;2022-11-04T14:37:04;2.57;;;2.00;;
50161;SDS011;36061;48.116;11.612;2022-11-04T14:39:43;2.97;;;1.30;;
50161;SDS011;36061;48.116;11.612;2022-11-04T14:42:12;2.97;;;2.30;;
50161;SDS011;36061;48.116;11.612;2022-11-04T14:52:36;2.33;;;1.60;;
50161;SDS011;36061;48.116;11.612;2022-11-04T14:57:39;1.20;;;1.10;;
50161;SDS011;36061;48.116;11.612;2022-11-04T15:03:04;2.73;;;1.50;;
50161;SDS011;36061;48.116;11.612;2022-11-04T15:05:39;2.53;;;1.33;;
50161;SDS011;36061;48.116;11.612;2022-11-04T15:08:28;3.50;;;1.30;;
50161;SDS011;36061;48.116;11.612;2022-11-04T15:10:58;1.40;;;1.30;;
50161;SDS011;36061;48.116;11.612;2022-11-04T15:13:26;2.47;;;1.50;;
50161;SDS011;36061;48.116;11.612;2022-11-04T15:15:53;3.07;;;1.17;;
50161;SDS011;36061;48.116;11.612;2022-11-04T15:18:22;2.53;;;1.57;;
50161;SDS011;36061;48.116;11.612;2022-11-04T15:20:54;1.63;;;0.93;;
50161;SDS011;36061;48.116;11.612;2022-11-04T15:23:29;3.10;;;1.20;;
50161;SDS011;36061;48.116;11.612;2022-11-04T15:25:58;2.67;;;1.57;;
50161;SDS011;36061;48.116;11.612;2022-11-04T15:28:31;5.63;;;1.57;;
50161;SDS011;36061;48.116;11.612;2022-11-04T15:31:01;1.47;;;1.10;;
50161;SDS011;36061;48.116;11.612;2022-11-04T15:33:26;1.80;;;1.40;;
50161;SDS011;36061;48.116;11.612;2022-11-04T15:35:53;3.17;;;1.47;;
50161;SDS011;36061;48.116;11.612;2022-11-04T15:38:20;3.43;;;1.27;;
50161;SDS011;36061;48.116;11.612;2022-11-04T15:40:48;1.57;;;1.10;;
50161;SDS011;36061;48.116;11.612;2022-11-04T15:43:14;4.73;;;1.17;;
50161;SDS011;36061;48.116;11.612;2022-11-04T15:45:50;1.70;;;1.43;;
50161;SDS011;36061;48.116;11.612;2022-11-04T15:51:24;3.10;;;2.80;;
50161;SDS011;36061;48.116;11.612;2022-11-04T15:53:58;2.50;;;1.70;;
50161;SDS011;36061;48.116;11.612;2022-11-04T15:56:37;3.87;;;1.97;;
50161;SDS011;36061;48.116;11.612;2022-11-04T15:59:09;2.53;;;1.30;;
50161;SDS011;36061;48.116;11.612;2022-11-04T16:01:44;2.23;;;1.20;;
50161;SDS011;36061;48.116;11.612;2022-11-04T16:04:12;2.63;;;1.47;;
50161;SDS011;36061;48.116;11.612;2022-11-04T16:06:40;4.63;;;1.50;;
50161;SDS011;36061;48.116;11.612;2022-11-04T16:11:35;1.87;;;1.30;;
50161;SDS011;36061;48.116;11.612;2022-11-04T16:14:17;2.37;;;1.60;;
50161;SDS011;36061;48.116;11.612;2022-11-04T16:16:51;1.87;;;1.23;;
50161;SDS011;36061;48.116;11.612;2022-11-04T16:19:21;2.10;;;1.57;;
50161;SDS011;36061;48.116;11.612;2022-11-04T16:22:00;2.07;;;1.40;;
50161;SDS011;36061;48.116;11.612;2022-11-04T16:24:30;1.63;;;1.53;;
50161;SDS011;36061;48.116;11.612;2022-11-04T16:26:57;3.87;;;2.47;;
50161;SDS011;36061;48.116;11.612;2022-11-04T16:29:25;2.50;;;1.60;;
50161;SDS011;36061;48.116;11.612;2022-11-04T16:32:16;1.73;;;1.30;;
50161;SDS011;36061;48.116;11.612;2022-11-04T16:34:44;3.43;;;1.90;;
50161;SDS011;36061;48.116;11.612;2022-11-04T16:37:12;2.37;;;1.80;;
50161;SDS011;36061;48.116;11.612;2022-11-04T16:39:38;3.07;;;1.80;;
50161;SDS011;36061;48.116;11.612;2022-11-04T16:42:04;3.83;;;2.20;;
50161;SDS011;36061;48.116;11.612;2022-11-04T16:44:31;3.67;;;2.60;;
50161;SDS011;36061;48.116;11.612;2022-11-04T16:46:57;5.13;;;2.53;;
50161;SDS011;36061;48.116;11.612;2022-11-04T16:49:24;3.47;;;1.97;;
50161;SDS011;36061;48.116;11.612;2022-11-04T16:51:54;2.13;;;1.87;;
50161;SDS011;36061;48.116;11.612;2022-11-04T16:54:24;2.03;;;1.80;;
50161;SDS011;36061;48.116;11.612;2022-11-04T16:56:52;5.10;;;2.40;;
50161;SDS011;36061;48.116;11.612;2022-11-04T16:59:20;6.87;;;3.33;;
50161;SDS011;36061;48.116;11.612;2022-11-04T17:01:47;5.57;;;3.03;;
50161;SDS011;36061;48.116;11.612;2022-11-04T17:04:13;6.50;;;3.33;;
50161;SDS011;36061;48.116;11.612;2022-11-04T17:06:39;4.70;;;3.00;;
50161;SDS011;36061;48.116;11.612;2022-11-04T17:09:09;9.90;;;5.20;;
50161;SDS011;36061;48.116;11.612;2022-11-04T17:11:46;9.37;;;5.13;;
50161;SDS011;36061;48.116;11.612;2022-11-04T17:14:12;14.27;;;9.40;;
50161;SDS011;36061;48.116;11.612;2022-11-04T17:16:38;7.27;;;4.10;;
50161;SDS011;36061;48.116;11.612;2022-11-04T17:19:04;8.13;;;3.93;;
50161;SDS011;36061;48.116;11.612;2022-11-04T17:21:30;5.10;;;2.80;;
50161;SDS011;36061;48.116;11.612;2022-11-04T17:23:56;3.17;;;2.20;;
50161;SDS011;36061;48.116;11.612;2022-11-04T17:26:22;3.97;;;3.00;;
50161;SDS011;36061;48.116;11.612;2022-11-04T17:28:47;4.67;;;2.97;;
50161;SDS011;36061;48.116;11.612;2022-11-04T17:31:20;4.80;;;2.73;;
50161;SDS011;36061;48.116;11.612;2022-11-04T17:33:46;5.40;;;2.97;;
50161;SDS011;36061;48.116;11.612;2022-11-04T17:36:14;4.40;;;2.93;;
50161;SDS011;36061;48.116;11.612;2022-11-04T17:38:42;10.30;;;6.83;;
50161;SDS011;36061;48.116;11.612;2022-11-04T17:41:08;5.50;;;3.90;;
50161;SDS011;36061;48.116;11.612;2022-11-04T17:43:52;5.50;;;3.30;;
50161;SDS011;36061;48.116;11.612;2022-11-04T17:46:24;6.23;;;2.97;;
50161;SDS011;36061;48.116;11.612;2022-11-04T17:49:07;4.90;;;3.00;;
50161;SDS011;36061;48.116;11.612;2022-11-04T17:51:39;3.50;;;2.50;;
50161;SDS011;36061;48.116;11.612;2022-11-04T17:54:07;4.73;;;2.43;;
50161;SDS011;36061;48.116;11.612;2022-11-04T17:56:33;3.40;;;2.10;;
50161;SDS011;36061;48.116;11.612;2022-11-04T17:59:00;3.37;;;1.90;;
50161;SDS011;36061;48.116;11.612;2022-11-04T18:01:28;3.80;;;1.90;;
50161;SDS011;36061;48.116;11.612;2022-11-04T18:03:55;2.40;;;2.17;;